Time;durP1;ratioP1;P1;durP2;ratioP2;P2;SDS_P1;SDS_P2;PMS_P1;PMS_P2;Temp;Humidity;BMP_temperature;BMP_pressure;BME280_temperature;BME280_humidity;BME280_pressure;Samples;Min_cycle;Max_cycle;Signal;HPM_P1;HPM_P2
2023/05/11 00:02:54;;;;;;;6.00;3.60;;;;;;;9.20;42.43;100617.36;131489;1250;107546;-78
2023/05/11 00:05:59;;;;;;;5.90;3.70;;;;;;;9.18;42.76;100619.29;131547;1253;107232;-79
2023/05/11 00:09:05;;;;;;;5.60;3.50;;;;;;;9.16;42.61;100617.58;131461;1254;107267;-78
2023/05/11 00:12:12;;;;;;;7.80;3.50;;;;;;;9.13;42.74;100620.45;131718;1257;107233;-79
2023/05/11 00:15:17;;;;;;;6.30;3.70;;;;;;;9.10;42.93;100620.18;131623;1254;107570;-78
2023/05/11 00:18:23;;;;;;;6.00;3.50;;;;;;;9.06;43.00;100619.50;131581;1250;107494;-78
2023/05/11 00:21:28;;;;;;;4.20;3.40;;;;;;;8.99;43.00;100616.86;131539;1257;107114;-76
2023/05/11 00:24:34;;;;;;;5.50;3.80;;;;;;;8.96;43.10;100615.92;131580;1251;107393;-76
2023/05/11 00:27:44;;;;;;;5.60;3.80;;;;;;;8.90;43.21;100612.56;131622;1251;107627;-76
2023/05/11 00:30:50;;;;;;;5.90;3.70;;;;;;;8.83;43.28;100617.72;131546;1246;107219;-77
2023/05/11 00:33:57;;;;;;;7.30;3.90;;;;;;;8.80;43.08;100615.89;131538;1260;107357;-77
2023/05/11 00:37:03;;;;;;;5.10;3.70;;;;;;;8.76;43.42;100616.09;131547;1260;107476;-78
2023/05/11 00:40:10;;;;;;;5.20;3.30;;;;;;;8.69;43.44;100613.45;131694;1254;107447;-78
2023/05/11 00:43:15;;;;;;;5.50;3.80;;;;;;;8.64;43.57;100612.41;131999;1251;107395;-78
2023/05/11 00:46:22;;;;;;;5.50;3.50;;;;;;;8.59;43.66;100612.33;131660;1254;108227;-78
2023/05/11 00:49:27;;;;;;;7.30;3.90;;;;;;;8.56;43.53;100612.98;131917;1251;107357;-78
2023/05/11 00:52:33;;;;;;;4.50;3.40;;;;;;;8.51;43.88;100607.52;131717;1251;106186;-77
2023/05/11 00:55:38;;;;;;;5.40;3.40;;;;;;;8.47;44.08;100610.91;131678;1254;107538;-78
2023/05/11 00:58:44;;;;;;;5.80;3.90;;;;;;;8.44;44.20;100607.42;131743;1260;105483;-77
2023/05/11 01:01:50;;;;;;;5.10;3.50;;;;;;;8.41;44.17;100605.32;131710;1257;107197;-78
2023/05/11 01:04:56;;;;;;;4.90;3.60;;;;;;;8.39;43.87;100604.79;131957;1248;107456;-78
2023/05/11 01:08:11;;;;;;;5.00;3.40;;;;;;;8.37;44.06;100601.64;131816;1250;107565;-78
2023/05/11 01:11:25;;;;;;;4.30;3.50;;;;;;;8.34;43.97;100601.03;131787;1255;107536;-78
2023/05/11 01:14:39;;;;;;;6.00;3.40;;;;;;;8.30;44.48;100603.98;131838;1250;107528;-78
2023/05/11 01:17:51;;;;;;;4.10;3.30;;;;;;;8.27;44.40;100602.42;131693;1254;107598;-78
2023/05/11 01:21:00;;;;;;;9.10;3.40;;;;;;;8.24;44.27;100601.25;131756;1251;107360;-77
2023/05/11 01:24:20;;;;;;;5.30;3.40;;;;;;;8.20;44.68;100602.81;131621;1260;107850;-77
2023/05/11 01:27:55;;;;;;;4.50;3.30;;;;;;;8.16;44.62;100600.72;131708;1250;107541;-77
2023/05/11 01:31:09;;;;;;;5.20;3.60;;;;;;;8.12;44.77;100601.78;131806;1253;107334;-78
2023/05/11 01:34:19;;;;;;;4.20;3.10;;;;;;;8.07;44.82;100602.00;131787;1247;107545;-78
2023/05/11 01:37:26;;;;;;;4.50;3.40;;;;;;;8.04;44.88;100601.70;131588;1257;107441;-78
2023/05/11 01:40:35;;;;;;;10.60;4.20;;;;;;;8.02;45.21;100601.39;131795;1254;105780;-78
2023/05/11 01:43:44;;;;;;;6.10;3.50;;;;;;;7.98;45.17;100605.09;131721;1250;107445;-78
2023/05/11 01:46:51;;;;;;;5.10;3.60;;;;;;;7.92;45.19;100602.75;131821;1248;106370;-78
2023/05/11 01:50:00;;;;;;;5.50;3.50;;;;;;;7.89;45.28;100602.48;131648;1257;107258;-77
2023/05/11 01:53:07;;;;;;;5.30;3.50;;;;;;;7.85;45.27;100602.73;131510;1261;106391;-77
2023/05/11 01:56:14;;;;;;;7.20;3.60;;;;;;;7.81;45.39;100603.24;131756;1257;107476;-77
2023/05/11 01:59:21;;;;;;;5.10;3.40;;;;;;;7.76;45.39;100606.84;131629;1254;107483;-78
2023/05/11 02:02:29;;;;;;;5.60;3.60;;;;;;;7.74;45.43;100604.58;131666;1254;107614;-78
2023/05/11 02:05:35;;;;;;;5.60;3.60;;;;;;;7.68;45.59;100603.30;131314;1263;107568;-78
2023/05/11 02:08:43;;;;;;;5.00;3.60;;;;;;;7.65;45.55;100599.98;131872;1250;107488;-79
2023/05/11 02:11:50;;;;;;;8.00;3.70;;;;;;;7.62;45.53;100601.25;131635;1258;107417;-79
2023/05/11 02:14:57;;;;;;;5.10;3.70;;;;;;;7.61;45.53;100602.97;131642;1249;107499;-76
2023/05/11 02:18:04;;;;;;;5.00;3.50;;;;;;;7.58;45.72;100606.08;131429;1248;107452;-77
2023/05/11 02:21:12;;;;;;;7.50;3.80;;;;;;;7.54;45.75;100600.50;131627;1259;105920;-77
2023/05/11 02:24:19;;;;;;;8.30;3.70;;;;;;;7.53;45.85;100606.95;131376;1261;105671;-78
2023/05/11 02:27:24;;;;;;;5.50;3.50;;;;;;;7.51;45.91;100602.54;131665;1261;107360;-79
2023/05/11 02:30:32;;;;;;;4.70;3.60;;;;;;;7.47;45.95;100604.06;131700;1248;107344;-76
2023/05/11 02:33:44;;;;;;;5.20;3.80;;;;;;;7.44;46.18;100600.98;131484;1254;107471;-78
2023/05/11 02:36:53;;;;;;;7.60;3.70;;;;;;;7.42;46.16;100601.16;131665;1261;107498;-75
2023/05/11 02:40:05;;;;;;;5.00;3.60;;;;;;;7.40;46.18;100600.58;131402;1253;107331;-74
2023/05/11 02:43:14;;;;;;;5.00;3.90;;;;;;;7.37;46.46;100602.41;131356;1251;107492;-74
2023/05/11 02:46:31;;;;;;;13.10;9.60;;;;;;;7.36;46.49;100601.95;131337;1251;107470;-74
2023/05/11 02:49:39;;;;;;;8.20;4.90;;;;;;;7.37;46.52;100598.91;131524;1251;107533;-75
2023/05/11 02:52:49;;;;;;;10.70;5.20;;;;;;;7.35;46.57;100594.10;131555;1254;107342;-76
2023/05/11 02:55:57;;;;;;;9.40;4.90;;;;;;;7.34;46.60;100601.79;131481;1251;107464;-76
2023/05/11 02:59:04;;;;;;;7.10;3.90;;;;;;;7.34;46.66;100600.56;131598;1250;107562;-76
2023/05/11 03:02:09;;;;;;;8.10;4.60;;;;;;;7.33;46.76;100607.16;131375;1252;107527;-76
2023/05/11 03:05:15;;;;;;;8.60;4.20;;;;;;;7.35;46.71;100608.27;131328;1253;106522;-77
2023/05/11 03:08:21;;;;;;;11.90;4.60;;;;;;;7.36;46.77;100604.99;131426;1254;107215;-75
2023/05/11 03:11:27;;;;;;;6.90;3.80;;;;;;;7.37;46.85;100603.81;131359;1248;107458;-76
2023/05/11 03:14:33;;;;;;;6.50;4.20;;;;;;;7.37;46.97;100608.13;131563;1259;107489;-76
2023/05/11 03:17:41;;;;;;;6.60;4.00;;;;;;;7.37;46.95;100608.61;131515;1261;107443;-76
2023/05/11 03:20:49;;;;;;;6.00;4.20;;;;;;;7.38;47.07;100612.77;131287;1254;107329;-76
2023/05/11 03:23:57;;;;;;;5.90;4.00;;;;;;;7.39;47.05;100609.67;131615;1250;107537;-76
2023/05/11 03:27:04;;;;;;;6.60;4.30;;;;;;;7.43;47.09;100611.30;131518;1251;107144;-76
2023/05/11 03:30:14;;;;;;;7.90;4.50;;;;;;;7.48;47.13;100611.63;131521;1254;107332;-76
2023/05/11 03:33:23;;;;;;;6.50;4.30;;;;;;;7.50;47.09;100612.02;131390;1257;107424;-76
2023/05/11 03:36:29;;;;;;;5.50;3.70;;;;;;;7.52;47.31;100614.15;131617;1252;105983;-76
2023/05/11 03:39:38;;;;;;;6.40;4.50;;;;;;;7.54;47.29;100618.61;131504;1258;106833;-75
2023/05/11 03:42:45;;;;;;;4.70;3.80;;;;;;;7.61;47.31;100617.46;131606;1248;107447;-76
2023/05/11 03:45:53;;;;;;;7.00;4.10;;;;;;;7.79;47.64;100620.41;131662;1251;107419;-77
2023/05/11 03:49:00;;;;;;;7.10;4.00;;;;;;;8.01;47.40;100614.95;131589;1259;107516;-76
2023/05/11 03:52:08;;;;;;;4.90;4.00;;;;;;;8.21;47.23;100614.48;131468;1255;107411;-76
2023/05/11 03:55:13;;;;;;;7.40;4.90;;;;;;;8.41;47.44;100613.51;131586;1248;107462;-76
2023/05/11 03:58:19;;;;;;;6.50;4.40;;;;;;;8.63;47.17;100615.59;131604;1251;107506;-76
2023/05/11 04:01:25;;;;;;;7.20;4.60;;;;;;;8.88;47.11;100616.45;131620;1260;107540;-76
2023/05/11 04:04:31;;;;;;;6.90;4.50;;;;;;;9.14;46.97;100619.47;131584;1248;106262;-76
2023/05/11 04:07:39;;;;;;;6.60;4.60;;;;;;;9.39;46.98;100624.89;131482;1254;106359;-76
2023/05/11 04:10:44;;;;;;;6.40;3.80;;;;;;;9.60;46.72;100626.06;131438;1254;107520;-75
2023/05/11 04:13:50;;;;;;;5.80;4.10;;;;;;;9.80;46.78;100621.60;131464;1254;107476;-75
2023/05/11 04:16:55;;;;;;;4.90;3.60;;;;;;;9.99;46.70;100621.71;131560;1261;106730;-77
2023/05/11 04:20:01;;;;;;;7.70;4.20;;;;;;;10.20;46.49;100621.15;131560;1252;107501;-75
2023/05/11 04:23:06;;;;;;;4.90;3.90;;;;;;;10.38;46.43;100621.48;131537;1251;107462;-75
2023/05/11 04:26:12;;;;;;;5.70;3.70;;;;;;;10.56;46.29;100619.66;131679;1260;106873;-75
2023/05/11 04:29:17;;;;;;;6.10;3.70;;;;;;;10.75;46.08;100619.79;131533;1254;107379;-77
2023/05/11 04:32:23;;;;;;;9.40;4.20;;;;;;;10.92;45.96;100621.36;131349;1257;107322;-75
2023/05/11 04:35:28;;;;;;;6.90;3.70;;;;;;;11.11;45.98;100623.16;131631;1258;107426;-76
2023/05/11 04:38:34;;;;;;;5.30;3.50;;;;;;;11.27;45.83;100623.53;131536;1250;107244;-75
2023/05/11 04:41:40;;;;;;;4.90;3.40;;;;;;;11.44;45.70;100620.35;131623;1247;107449;-75
2023/05/11 04:44:47;;;;;;;4.40;3.40;;;;;;;11.59;45.48;100622.23;131554;1249;107197;-75
2023/05/11 04:47:57;;;;;;;5.20;3.60;;;;;;;11.75;45.33;100623.84;131601;1261;107329;-75
2023/05/11 04:51:06;;;;;;;5.10;3.40;;;;;;;11.89;45.15;100629.43;131579;1251;107334;-75
2023/05/11 04:54:17;;;;;;;4.50;3.30;;;;;;;12.00;44.95;100629.25;131536;1251;107414;-75
2023/05/11 04:57:23;;;;;;;4.50;3.30;;;;;;;12.09;44.93;100632.53;131584;1251;107449;-75
2023/05/11 05:00:29;;;;;;;4.20;3.30;;;;;;;12.21;44.80;100630.60;131621;1251;106497;-75
2023/05/11 05:03:34;;;;;;;5.40;3.20;;;;;;;12.33;44.35;100629.59;131539;1252;107461;-75
2023/05/11 05:06:40;;;;;;;5.10;3.40;;;;;;;12.41;44.13;100632.80;131530;1248;107329;-74
2023/05/11 05:09:45;;;;;;;4.70;3.20;;;;;;;12.53;44.02;100632.31;131579;1251;107207;-75
2023/05/11 05:12:53;;;;;;;4.90;3.20;;;;;;;12.67;44.00;100632.17;131601;1260;107316;-75
2023/05/11 05:15:59;;;;;;;4.10;3.10;;;;;;;12.80;43.98;100631.05;131661;1248;107386;-74
2023/05/11 05:19:05;;;;;;;5.50;3.70;;;;;;;12.90;43.85;100633.30;131684;1251;107466;-75
2023/05/11 05:22:11;;;;;;;3.70;3.00;;;;;;;13.00;43.54;100632.89;131580;1251;107234;-75
2023/05/11 05:25:16;;;;;;;6.00;3.30;;;;;;;13.06;43.61;100636.48;131411;1253;107494;-75
2023/05/11 05:28:22;;;;;;;3.80;2.90;;;;;;;13.11;43.15;100631.85;131623;1250;108585;-76
2023/05/11 05:31:28;;;;;;;4.70;2.80;;;;;;;13.22;43.35;100635.98;131479;1254;107369;-73
2023/05/11 05:34:33;;;;;;;4.40;3.30;;;;;;;13.35;43.31;100639.05;131502;1251;107479;-74
2023/05/11 05:37:39;;;;;;;3.70;3.10;;;;;;;13.48;42.92;100641.48;131510;1253;107519;-77
2023/05/11 05:40:45;;;;;;;3.90;2.70;;;;;;;13.57;42.72;100644.82;131532;1251;106377;-74
2023/05/11 05:43:51;;;;;;;3.30;2.90;;;;;;;13.65;43.03;100644.54;131523;1248;107227;-74
2023/05/11 05:46:57;;;;;;;4.60;2.70;;;;;;;13.70;42.84;100650.85;131532;1251;107513;-74
2023/05/11 05:50:05;;;;;;;4.70;2.80;;;;;;;13.77;42.44;100651.57;131374;1247;107176;-75
2023/05/11 05:53:11;;;;;;;3.60;2.90;;;;;;;13.81;42.09;100651.00;131534;1251;107400;-74
2023/05/11 05:56:17;;;;;;;3.20;2.30;;;;;;;13.88;42.11;100648.14;131483;1251;107357;-75
2023/05/11 05:59:24;;;;;;;2.40;2.20;;;;;;;13.90;41.51;100647.66;131487;1254;106504;-74
2023/05/11 06:02:33;;;;;;;3.80;2.70;;;;;;;13.92;41.28;100650.70;131621;1251;107407;-74
2023/05/11 06:05:39;;;;;;;3.50;2.50;;;;;;;13.96;41.74;100644.70;131436;1251;107385;-74
2023/05/11 06:08:44;;;;;;;2.90;2.20;;;;;;;14.02;41.65;100647.82;131447;1257;107536;-74
2023/05/11 06:11:50;;;;;;;3.30;2.30;;;;;;;14.06;41.02;100649.17;131473;1251;107529;-74
2023/05/11 06:14:55;;;;;;;3.70;2.30;;;;;;;14.06;40.59;100645.92;131507;1251;107461;-74
2023/05/11 06:18:01;;;;;;;3.70;2.20;;;;;;;14.08;41.12;100649.27;131474;1248;107257;-74
2023/05/11 06:21:08;;;;;;;4.30;2.20;;;;;;;14.13;40.65;100650.22;131550;1251;107328;-74
2023/05/11 06:24:14;;;;;;;7.50;2.30;;;;;;;14.13;39.99;100650.87;131490;1251;107209;-74
2023/05/11 06:27:21;;;;;;;4.60;2.00;;;;;;;14.15;39.93;100652.70;131517;1250;107310;-74
2023/05/11 06:30:28;;;;;;;2.60;2.20;;;;;;;14.18;39.87;100651.30;131564;1262;107401;-74
2023/05/11 06:33:34;;;;;;;6.10;2.50;;;;;;;14.24;40.15;100653.38;131323;1253;107570;-74
2023/05/11 06:36:39;;;;;;;2.50;2.10;;;;;;;14.30;40.22;100650.50;131632;1250;107354;-74
2023/05/11 06:39:45;;;;;;;5.00;2.10;;;;;;;14.38;39.71;100650.23;131432;1254;107422;-75
2023/05/11 06:42:51;;;;;;;3.70;2.10;;;;;;;14.42;39.00;100648.88;131547;1251;107625;-75
2023/05/11 06:45:56;;;;;;;3.30;2.30;;;;;;;14.44;39.07;100651.70;131623;1251;107360;-74
2023/05/11 06:49:02;;;;;;;5.30;2.50;;;;;;;14.49;39.08;100652.58;131499;1248;107531;-74
2023/05/11 06:52:09;;;;;;;3.20;2.70;;;;;;;14.53;38.85;100648.74;131704;1251;107348;-74
2023/05/11 06:55:15;;;;;;;3.50;2.20;;;;;;;14.59;38.91;100652.59;131605;1251;107452;-74
2023/05/11 06:58:20;;;;;;;8.70;3.30;;;;;;;14.65;38.81;100653.60;131756;1247;107357;-74
2023/05/11 07:01:27;;;;;;;4.00;2.70;;;;;;;14.67;38.74;100648.66;131487;1250;107338;-74
2023/05/11 07:04:32;;;;;;;2.40;2.00;;;;;;;14.75;38.70;100651.78;131539;1251;107372;-74
2023/05/11 07:07:38;;;;;;;4.90;2.30;;;;;;;14.82;38.10;100653.09;131602;1251;107502;-74
2023/05/11 07:10:43;;;;;;;4.00;2.30;;;;;;;14.86;37.90;100644.90;131554;1250;107496;-77
2023/05/11 07:13:49;;;;;;;4.10;1.80;;;;;;;14.92;37.99;100642.27;131653;1250;107479;-74
2023/05/11 07:16:54;;;;;;;4.00;2.10;;;;;;;14.98;37.23;100642.92;131508;1247;107519;-74
2023/05/11 07:20:00;;;;;;;4.60;2.30;;;;;;;15.01;37.15;100644.17;131562;1257;107195;-74
2023/05/11 07:23:05;;;;;;;3.30;1.90;;;;;;;15.06;37.28;100637.56;131567;1250;107236;-76
2023/05/11 07:26:11;;;;;;;2.90;2.30;;;;;;;15.12;37.42;100637.73;131562;1251;107485;-76
2023/05/11 07:29:16;;;;;;;4.50;2.00;;;;;;;15.19;37.12;100648.99;131567;1251;107460;-76
2023/05/11 07:32:22;;;;;;;6.70;2.10;;;;;;;15.22;36.79;100645.36;131642;1251;107437;-77
2023/05/11 07:35:27;;;;;;;5.00;2.40;;;;;;;15.26;36.97;100649.41;131533;1247;107448;-77
2023/05/11 07:38:33;;;;;;;4.60;2.50;;;;;;;15.31;36.77;100645.58;131620;1261;107457;-77
2023/05/11 07:41:39;;;;;;;3.20;2.20;;;;;;;15.37;36.37;100643.67;131599;1254;107263;-76
2023/05/11 07:44:44;;;;;;;4.50;2.10;;;;;;;15.42;37.07;100644.54;131628;1250;107502;-76
2023/05/11 07:47:50;;;;;;;3.40;2.30;;;;;;;15.49;36.99;100642.28;131582;1251;107317;-76
2023/05/11 07:50:55;;;;;;;4.80;2.20;;;;;;;15.58;37.03;100638.48;131583;1261;107517;-76
2023/05/11 07:54:01;;;;;;;4.30;2.70;;;;;;;15.65;36.86;100644.81;131527;1247;107304;-76
2023/05/11 07:57:06;;;;;;;6.00;2.40;;;;;;;15.72;36.56;100646.71;131587;1247;107109;-76
2023/05/11 08:00:14;;;;;;;4.10;2.30;;;;;;;15.75;36.46;100642.27;131622;1247;106539;-76
2023/05/11 08:03:20;;;;;;;4.50;2.20;;;;;;;15.79;36.55;100644.64;131607;1247;107185;-77
2023/05/11 08:06:25;;;;;;;5.80;2.60;;;;;;;15.86;36.32;100640.54;131512;1251;106030;-76
2023/05/11 08:09:31;;;;;;;3.60;2.30;;;;;;;15.86;35.99;100645.84;131565;1254;107449;-76
2023/05/11 08:12:38;;;;;;;3.80;2.20;;;;;;;15.91;36.55;100638.81;131574;1251;107510;-76
2023/05/11 08:15:43;;;;;;;5.10;2.50;;;;;;;16.00;36.44;100632.65;131619;1251;107463;-76
2023/05/11 08:18:49;;;;;;;4.00;2.10;;;;;;;16.08;36.28;100633.40;131615;1248;107208;-76
2023/05/11 08:21:55;;;;;;;4.40;2.30;;;;;;;16.12;36.06;100633.98;131608;1251;107368;-76
2023/05/11 08:25:00;;;;;;;5.40;2.30;;;;;;;16.18;36.54;100630.79;131529;1251;107476;-76
2023/05/11 08:28:06;;;;;;;4.00;2.50;;;;;;;16.24;36.13;100634.52;131598;1247;107499;-77
2023/05/11 08:31:13;;;;;;;4.10;2.30;;;;;;;16.30;35.79;100635.84;131561;1251;107533;-76
2023/05/11 08:34:18;;;;;;;3.00;2.40;;;;;;;16.35;36.32;100631.80;131548;1248;108071;-76
2023/05/11 08:37:24;;;;;;;6.00;2.30;;;;;;;16.42;35.70;100630.13;131550;1248;107085;-76
2023/05/11 08:40:31;;;;;;;3.20;2.50;;;;;;;16.45;35.44;100622.21;131558;1250;107354;-76
2023/05/11 08:43:39;;;;;;;2.80;2.40;;;;;;;16.49;36.07;100626.43;131562;1250;107227;-76
2023/05/11 08:46:48;;;;;;;3.60;2.40;;;;;;;16.53;35.98;100621.23;131496;1250;107518;-76
2023/05/11 08:49:54;;;;;;;3.50;2.50;;;;;;;16.56;36.03;100614.23;131635;1248;107243;-76
2023/05/11 08:52:59;;;;;;;5.80;2.70;;;;;;;16.62;36.18;100620.76;131541;1262;107236;-76
2023/05/11 08:56:07;;;;;;;3.50;2.50;;;;;;;16.61;35.64;100617.95;131549;1251;108480;-75
2023/05/11 08:59:15;;;;;;;4.60;2.90;;;;;;;16.64;36.04;100617.93;131474;1250;107340;-74
2023/05/11 09:02:21;;;;;;;3.50;2.50;;;;;;;16.69;35.92;100623.11;131562;1247;107242;-75
2023/05/11 09:05:27;;;;;;;3.70;2.60;;;;;;;16.71;35.89;100616.61;131483;1248;107206;-75
2023/05/11 09:08:35;;;;;;;3.50;2.60;;;;;;;16.77;36.03;100622.55;131568;1251;106399;-75
2023/05/11 09:11:41;;;;;;;4.30;2.70;;;;;;;16.82;35.96;100615.65;131573;1247;108060;-75
2023/05/11 09:14:47;;;;;;;3.50;2.70;;;;;;;16.87;36.32;100612.54;131586;1251;108087;-75
2023/05/11 09:17:52;;;;;;;6.30;2.50;;;;;;;16.95;36.04;100611.64;131564;1251;107531;-75
2023/05/11 09:21:00;;;;;;;3.80;2.90;;;;;;;17.01;35.95;100622.02;131485;1251;107487;-75
2023/05/11 09:24:06;;;;;;;3.20;2.60;;;;;;;17.03;35.65;100620.89;131533;1251;107359;-74
2023/05/11 09:27:12;;;;;;;3.30;2.30;;;;;;;17.03;35.89;100615.23;131520;1248;107213;-76
2023/05/11 09:30:20;;;;;;;6.70;2.60;;;;;;;17.08;35.77;100617.52;131609;1250;107497;-75
2023/05/11 09:33:26;;;;;;;4.70;2.90;;;;;;;17.09;34.95;100613.08;131528;1250;106502;-75
2023/05/11 09:36:32;;;;;;;4.20;2.60;;;;;;;17.06;34.86;100606.67;131512;1251;107478;-75
2023/05/11 09:39:38;;;;;;;4.00;2.50;;;;;;;17.10;35.60;100611.19;131513;1248;107580;-75
2023/05/11 09:42:44;;;;;;;5.10;2.50;;;;;;;17.21;35.48;100616.30;131514;1261;107343;-75
2023/05/11 09:45:51;;;;;;;3.60;2.40;;;;;;;17.27;35.45;100610.41;131567;1251;107483;-75
2023/05/11 09:49:01;;;;;;;3.40;2.30;;;;;;;17.37;35.75;100606.67;131592;1251;107482;-75
2023/05/11 09:52:07;;;;;;;3.30;2.30;;;;;;;17.45;35.60;100602.08;131598;1251;107378;-75
2023/05/11 09:55:12;;;;;;;6.00;2.60;;;;;;;17.53;35.67;100601.39;131589;1251;107225;-75
2023/05/11 09:58:18;;;;;;;4.40;2.40;;;;;;;17.65;35.40;100599.10;131510;1258;107584;-75
2023/05/11 10:01:32;;;;;;;2.80;2.20;;;;;;;17.66;35.14;100598.23;131621;1250;107344;-75
2023/05/11 10:04:37;;;;;;;3.20;2.40;;;;;;;17.70;35.58;100597.53;131576;1251;107492;-75
2023/05/11 10:07:44;;;;;;;2.50;2.10;;;;;;;17.75;35.10;100599.76;131500;1248;107515;-75
2023/05/11 10:10:49;;;;;;;7.60;2.30;;;;;;;17.80;35.10;100597.02;131570;1250;106996;-75
2023/05/11 10:13:55;;;;;;;4.70;2.30;;;;;;;17.84;35.09;100591.60;131539;1251;107514;-74
2023/05/11 10:17:03;;;;;;;3.70;2.50;;;;;;;17.88;34.97;100587.03;131474;1250;107410;-74
2023/05/11 10:20:10;;;;;;;2.90;2.30;;;;;;;17.91;34.82;100588.40;131603;1250;107508;-75
2023/05/11 10:23:16;;;;;;;4.00;2.30;;;;;;;17.93;34.64;100592.29;131583;1250;107511;-76
2023/05/11 10:26:22;;;;;;;4.20;2.30;;;;;;;17.92;34.52;100586.73;131584;1251;107539;-76
2023/05/11 10:29:28;;;;;;;3.80;2.70;;;;;;;17.92;34.43;100581.89;131701;1247;107248;-74
2023/05/11 10:32:37;;;;;;;6.10;2.50;;;;;;;17.94;34.39;100578.00;131632;1261;107212;-75
2023/05/11 10:35:45;;;;;;;5.10;2.60;;;;;;;18.01;34.75;100572.46;131490;1251;106851;-75
2023/05/11 10:38:50;;;;;;;4.50;2.50;;;;;;;18.06;34.32;100569.84;131512;1250;106528;-75
2023/05/11 10:42:13;;;;;;;3.00;2.50;;;;;;;18.10;34.42;100572.65;131580;1251;106489;-75
2023/05/11 10:45:24;;;;;;;2.80;2.50;;;;;;;18.12;34.46;100569.23;131534;1251;107520;-76
2023/05/11 10:48:53;;;;;;;4.80;2.30;;;;;;;18.14;34.42;100567.73;131566;1248;107256;-75
2023/05/11 10:52:22;;;;;;;5.20;2.60;;;;;;;18.16;34.36;100562.31;131526;1248;107502;-75
2023/05/11 10:55:38;;;;;;;3.40;2.20;;;;;;;18.20;34.39;100557.48;131297;1250;107976;-74
2023/05/11 10:58:59;;;;;;;3.00;2.20;;;;;;;18.24;34.57;100555.07;131510;1250;107338;-75
2023/05/11 11:02:06;;;;;;;6.20;2.50;;;;;;;18.30;34.31;100554.19;131543;1261;107502;-74
2023/05/11 11:05:16;;;;;;;4.10;2.50;;;;;;;18.31;34.26;100551.52;131542;1251;107586;-77
2023/05/11 11:08:22;;;;;;;3.40;2.40;;;;;;;18.36;34.03;100554.16;131534;1251;107488;-74
2023/05/11 11:11:32;;;;;;;3.80;2.50;;;;;;;18.40;34.38;100553.94;131610;1251;107517;-74
2023/05/11 11:14:55;;;;;;;3.90;2.60;;;;;;;18.43;34.20;100546.69;131502;1250;162276;-75
2023/05/11 11:18:21;;;;;;;2.90;2.30;;;;;;;18.45;34.53;100545.24;131543;1248;108186;-73
2023/05/11 11:21:41;;;;;;;4.30;2.30;;;;;;;18.53;34.44;100545.46;131525;1248;107492;-74
2023/05/11 11:24:47;;;;;;;3.30;2.20;;;;;;;18.56;34.01;100550.14;131531;1248;107242;-74
2023/05/11 11:27:59;;;;;;;2.80;2.20;;;;;;;18.56;34.12;100552.09;131555;1251;107463;-74
2023/05/11 11:31:26;;;;;;;2.80;2.20;;;;;;;18.56;34.19;100545.02;131542;1251;107294;-74
2023/05/11 11:34:36;;;;;;;3.10;2.50;;;;;;;18.59;34.13;100549.36;131557;1250;107524;-74
2023/05/11 11:38:02;;;;;;;3.70;2.10;;;;;;;18.59;34.02;100545.28;131537;1251;107583;-74
2023/05/11 11:41:09;;;;;;;7.70;2.80;;;;;;;18.62;34.19;100544.98;131509;1251;107367;-75
2023/05/11 11:44:23;;;;;;;3.30;2.40;;;;;;;18.68;34.30;100544.14;131623;1250;108123;-77
2023/05/11 11:47:28;;;;;;;3.90;2.20;;;;;;;18.71;33.76;100547.85;131604;1255;107498;-76
2023/05/11 11:50:34;;;;;;;5.10;2.30;;;;;;;18.70;33.88;100541.27;131584;1250;107524;-76
2023/05/11 11:54:06;;;;;;;2.90;2.30;;;;;;;18.69;33.94;100543.20;131554;1251;107390;-76
2023/05/11 11:57:48;;;;;;;3.00;2.50;;;;;;;18.71;33.94;100546.58;131564;1251;106384;-76
2023/05/11 12:00:56;;;;;;;2.70;2.10;;;;;;;18.74;33.98;100542.13;130760;1253;107353;-75
2023/05/11 12:04:23;;;;;;;3.50;2.40;;;;;;;18.76;33.74;100539.14;130698;1258;106576;-76
2023/05/11 12:07:34;;;;;;;3.50;2.50;;;;;;;18.77;33.85;100534.38;131472;1251;107534;-75
2023/05/11 12:10:40;;;;;;;3.60;2.40;;;;;;;18.80;33.81;100541.62;131369;1251;107333;-76
2023/05/11 12:13:46;;;;;;;3.90;2.30;;;;;;;18.81;33.56;100537.59;131266;1250;107259;-76
2023/05/11 12:17:14;;;;;;;3.30;2.30;;;;;;;18.82;33.90;100532.05;131483;1250;106786;-75
2023/05/11 12:20:21;;;;;;;4.40;2.50;;;;;;;18.86;33.83;100532.79;131530;1247;106489;-75
2023/05/11 12:23:26;;;;;;;3.40;2.30;;;;;;;18.89;33.85;100531.14;131528;1251;107515;-75
2023/05/11 12:26:34;;;;;;;3.20;2.50;;;;;;;18.90;33.76;100526.48;131563;1248;107606;-75
2023/05/11 12:29:40;;;;;;;4.10;2.10;;;;;;;18.85;33.94;100521.67;131545;1250;106509;-74
2023/05/11 12:32:45;;;;;;;3.20;2.40;;;;;;;18.83;33.95;100523.95;131492;1250;106950;-75
2023/05/11 12:35:55;;;;;;;2.60;2.40;;;;;;;18.89;33.96;100521.59;131536;1250;106395;-75
2023/05/11 12:39:00;;;;;;;4.80;2.60;;;;;;;18.93;33.78;100520.21;131607;1248;107213;-75
2023/05/11 12:42:07;;;;;;;4.10;2.30;;;;;;;18.99;33.76;100522.35;131602;1250;107128;-75
2023/05/11 12:45:13;;;;;;;3.10;2.50;;;;;;;19.04;33.62;100517.55;131646;1250;107507;-74
2023/05/11 12:48:19;;;;;;;3.70;2.50;;;;;;;19.09;33.61;100516.95;131508;1251;107524;-75
2023/05/11 12:51:49;;;;;;;2.90;2.40;;;;;;;19.08;33.68;100519.40;131559;1248;107797;-74
2023/05/11 12:54:58;;;;;;;6.10;2.50;;;;;;;19.09;33.32;100516.85;131538;1251;107500;-74
2023/05/11 12:58:11;;;;;;;3.10;2.50;;;;;;;19.08;33.67;100513.11;131645;1250;106683;-75
2023/05/11 13:01:23;;;;;;;4.10;2.50;;;;;;;19.08;33.22;100512.02;131703;1251;106504;-75
2023/05/11 13:04:32;;;;;;;2.60;2.20;;;;;;;19.03;33.17;100511.64;131669;1248;107312;-75
2023/05/11 13:07:38;;;;;;;4.40;2.40;;;;;;;19.00;33.22;100509.84;131622;1247;107327;-74
2023/05/11 13:10:43;;;;;;;4.40;2.30;;;;;;;19.03;33.31;100509.77;131636;1250;106368;-75
2023/05/11 13:13:49;;;;;;;2.90;2.30;;;;;;;19.08;33.58;100509.54;131566;1250;107511;-75
2023/05/11 13:16:57;;;;;;;4.00;2.30;;;;;;;19.14;33.62;100509.25;131606;1248;107609;-75
2023/05/11 13:23:37;;;;;;;5.00;2.60;;;;;;;19.20;33.05;100508.83;127131;1293;635689;-75
2023/05/11 13:26:43;;;;;;;5.80;2.30;;;;;;;19.16;32.89;100504.57;130115;1263;107520;-75
2023/05/11 13:29:48;;;;;;;5.70;2.50;;;;;;;19.17;33.16;100498.71;130242;1265;107508;-75
2023/05/11 13:32:54;;;;;;;2.50;2.10;;;;;;;19.19;32.87;100500.16;130149;1276;107554;-75
2023/05/11 13:35:59;;;;;;;2.90;2.20;;;;;;;19.17;32.74;100497.79;130005;1260;150008;-75
2023/05/11 13:39:05;;;;;;;5.00;2.30;;;;;;;19.19;32.83;100496.67;130230;1272;107238;-75
2023/05/11 13:42:11;;;;;;;2.80;2.20;;;;;;;19.19;32.93;100489.39;130200;1260;107459;-74
2023/05/11 13:45:17;;;;;;;4.10;2.60;;;;;;;19.24;33.07;100485.69;130348;1276;107414;-74
2023/05/11 13:48:22;;;;;;;4.80;2.40;;;;;;;19.27;32.55;100485.99;130260;1265;106252;-75
2023/05/11 13:51:28;;;;;;;3.20;2.30;;;;;;;19.21;32.62;100484.48;130209;1278;107460;-74
2023/05/11 13:54:33;;;;;;;2.70;2.40;;;;;;;19.20;32.93;100479.65;130181;1264;107582;-74
2023/05/11 13:57:39;;;;;;;3.50;2.60;;;;;;;19.23;32.75;100480.58;130218;1263;106447;-74
2023/05/11 14:00:45;;;;;;;5.00;2.40;;;;;;;19.22;32.66;100476.62;130407;1263;106669;-74
2023/05/11 14:03:55;;;;;;;4.30;2.20;;;;;;;19.21;32.74;100475.66;130207;1263;107549;-74
2023/05/11 14:07:01;;;;;;;3.10;2.40;;;;;;;19.21;32.64;100473.17;130385;1261;107382;-74
2023/05/11 14:10:10;;;;;;;4.10;2.60;;;;;;;19.17;32.61;100475.48;130240;1264;107397;-74
2023/05/11 14:13:15;;;;;;;2.90;2.50;;;;;;;19.07;32.70;100476.86;130285;1264;108108;-74
2023/05/11 14:16:21;;;;;;;2.30;2.10;;;;;;;19.06;32.60;100476.02;130294;1261;107453;-74
2023/05/11 14:19:27;;;;;;;2.90;2.40;;;;;;;19.07;32.33;100473.29;130319;1261;106529;-75
2023/05/11 14:22:32;;;;;;;3.10;2.30;;;;;;;19.07;32.72;100467.50;130294;1265;107558;-74